sensor_id;sensor_type;location;lat;lon;timestamp;pressure;altitude;pressure_sealevel;temperature;humidity
57606;BME280;43430;48.204;11.556;2023-05-01T00:01:10;95854.34;;;8.97;100.00
57606;BME280;43430;48.204;11.556;2023-05-01T00:03:36;95853.13;;;8.99;100.00
57606;BME280;43430;48.204;11.556;2023-05-01T00:06:02;95842.41;;;8.94;100.00
57606;BME280;43430;48.204;11.556;2023-05-01T00:08:29;95844.47;;;8.92;100.00
57606;BME280;43430;48.204;11.556;2023-05-01T00:10:55;95848.56;;;8.88;100.00
57606;BME280;43430;48.204;11.556;2023-05-01T00:13:21;95836.59;;;8.92;100.00
57606;BME280;43430;48.204;11.556;2023-05-01T00:15:49;95845.31;;;8.86;100.00
57606;BME280;43430;48.204;11.556;2023-05-01T00:18:14;95838.09;;;8.82;100.00
57606;BME280;43430;48.204;11.556;2023-05-01T00:20:40;95834.06;;;8.79;100.00
57606;BME280;43430;48.204;11.556;2023-05-01T00:23:06;95833.03;;;8.80;100.00
57606;BME280;43430;48.204;11.556;2023-05-01T00:25:33;95823.53;;;8.79;100.00
57606;BME280;43430;48.204;11.556;2023-05-01T00:27:58;95821.72;;;8.79;100.00
57606;BME280;43430;48.204;11.556;2023-05-01T00:30:27;95820.34;;;8.70;100.00
57606;BME280;43430;48.204;11.556;2023-05-01T00:32:52;95818.09;;;8.74;100.00
57606;BME280;43430;48.204;11.556;2023-05-01T00:35:18;95816.13;;;8.69;100.00
57606;BME280;43430;48.204;11.556;2023-05-01T00:37:43;95814.28;;;8.70;100.00
57606;BME280;43430;48.204;11.556;2023-05-01T00:40:09;95822.81;;;8.65;100.00
57606;BME280;43430;48.204;11.556;2023-05-01T00:42:35;95814.28;;;8.70;100.00
57606;BME280;43430;48.204;11.556;2023-05-01T00:45:01;95813.13;;;8.66;100.00
57606;BME280;43430;48.204;11.556;2023-05-01T00:47:27;95805.50;;;8.58;100.00
57606;BME280;43430;48.204;11.556;2023-05-01T00:49:53;95809.34;;;8.55;100.00
57606;BME280;43430;48.204;11.556;2023-05-01T00:52:19;95813.03;;;8.47;100.00
57606;BME280;43430;48.204;11.556;2023-05-01T00:54:44;95815.06;;;8.45;100.00
57606;BME280;43430;48.204;11.556;2023-05-01T00:57:19;95821.72;;;8.48;100.00
57606;BME280;43430;48.204;11.556;2023-05-01T00:59:45;95811.41;;;8.46;100.00
57606;BME280;43430;48.204;11.556;2023-05-01T01:02:10;95810.03;;;8.44;100.00
57606;BME280;43430;48.204;11.556;2023-05-01T01:04:44;95812.06;;;8.42;100.00
57606;BME280;43430;48.204;11.556;2023-05-01T01:07:31;95810.66;;;8.39;100.00
57606;BME280;43430;48.204;11.556;2023-05-01T01:10:15;95809.84;;;8.39;100.00
57606;BME280;43430;48.204;11.556;2023-05-01T01:15:35;95807.06;;;8.27;100.00
57606;BME280;43430;48.204;11.556;2023-05-01T01:18:10;95804.25;;;8.22;100.00
57606;BME280;43430;48.204;11.556;2023-05-01T01:20:56;95806.09;;;8.21;100.00
57606;BME280;43430;48.204;11.556;2023-05-01T01:23:34;95806.09;;;8.21;100.00
57606;BME280;43430;48.204;11.556;2023-05-01T01:34:39;95807.94;;;8.14;100.00
57606;BME280;43430;48.204;11.556;2023-05-01T01:37:18;95806.16;;;8.08;100.00
57606;BME280;43430;48.204;11.556;2023-05-01T01:42:17;95797.59;;;7.81;100.00
57606;BME280;43430;48.204;11.556;2023-05-01T01:44:50;95796.00;;;7.73;100.00
57606;BME280;43430;48.204;11.556;2023-05-01T01:47:18;95794.22;;;7.67;100.00
57606;BME280;43430;48.204;11.556;2023-05-01T01:49:47;95784.75;;;7.59;100.00
57606;BME280;43430;48.204;11.556;2023-05-01T01:52:15;95790.25;;;7.51;100.00
57606;BME280;43430;48.204;11.556;2023-05-01T01:54:45;95788.00;;;7.55;100.00
57606;BME280;43430;48.204;11.556;2023-05-01T01:57:15;95785.56;;;7.53;100.00
57606;BME280;43430;48.204;11.556;2023-05-01T01:59:41;95781.34;;;7.52;100.00
57606;BME280;43430;48.204;11.556;2023-05-01T02:02:08;95787.38;;;7.59;100.00
57606;BME280;43430;48.204;11.556;2023-05-01T02:04:37;95778.53;;;7.54;100.00
57606;BME280;43430;48.204;11.556;2023-05-01T02:07:05;95779.91;;;7.56;100.00
57606;BME280;43430;48.204;11.556;2023-05-01T02:09:33;95773.69;;;7.57;100.00
57606;BME280;43430;48.204;11.556;2023-05-01T02:12:00;95772.03;;;7.56;100.00
57606;BME280;43430;48.204;11.556;2023-05-01T02:14:28;95771.06;;;7.51;100.00
57606;BME280;43430;48.204;11.556;2023-05-01T02:16:54;95769.66;;;7.48;100.00
57606;BME280;43430;48.204;11.556;2023-05-01T02:19:22;95770.69;;;7.47;100.00
57606;BME280;43430;48.204;11.556;2023-05-01T02:21:49;95760.78;;;7.43;100.00
57606;BME280;43430;48.204;11.556;2023-05-01T02:24:16;95759.19;;;7.42;100.00
57606;BME280;43430;48.204;11.556;2023-05-01T02:26:47;95768.28;;;7.39;100.00
57606;BME280;43430;48.204;11.556;2023-05-01T02:29:14;95764.47;;;7.35;100.00
57606;BME280;43430;48.204;11.556;2023-05-01T02:31:39;95766.06;;;7.36;100.00
57606;BME280;43430;48.204;11.556;2023-05-01T02:34:04;95768.09;;;7.34;100.00
57606;BME280;43430;48.204;11.556;2023-05-01T02:36:30;95757.59;;;7.34;100.00
57606;BME280;43430;48.204;11.556;2023-05-01T02:38:58;95752.16;;;7.35;100.00
57606;BME280;43430;48.204;11.556;2023-05-01T02:41:24;95756.78;;;7.40;100.00
57606;BME280;43430;48.204;11.556;2023-05-01T02:43:57;95752.38;;;7.34;100.00
57606;BME280;43430;48.204;11.556;2023-05-01T02:46:24;95757.81;;;7.26;100.00
57606;BME280;43430;48.204;11.556;2023-05-01T02:48:52;95744.88;;;7.37;100.00
57606;BME280;43430;48.204;11.556;2023-05-01T02:51:18;95739.81;;;7.36;100.00
57606;BME280;43430;48.204;11.556;2023-05-01T02:53:45;95740.03;;;7.41;100.00
57606;BME280;43430;48.204;11.556;2023-05-01T02:56:11;95747.09;;;7.41;100.00
57606;BME280;43430;48.204;11.556;2023-05-01T02:58:37;95736.63;;;7.34;100.00
57606;BME280;43430;48.204;11.556;2023-05-01T03:01:02;95739.28;;;7.27;100.00
57606;BME280;43430;48.204;11.556;2023-05-01T03:03:28;95741.91;;;7.21;100.00
57606;BME280;43430;48.204;11.556;2023-05-01T03:05:53;95734.66;;;7.16;100.00
57606;BME280;43430;48.204;11.556;2023-05-01T03:08:19;95739.72;;;7.11;100.00
57606;BME280;43430;48.204;11.556;2023-05-01T03:10:44;95744.75;;;7.12;100.00
57606;BME280;43430;48.204;11.556;2023-05-01T03:13:10;95742.72;;;7.14;100.00
57606;BME280;43430;48.204;11.556;2023-05-01T03:15:36;95748.97;;;7.13;100.00
57606;BME280;43430;48.204;11.556;2023-05-01T03:18:02;95744.69;;;7.26;100.00
57606;BME280;43430;48.204;11.556;2023-05-01T03:20:28;95746.13;;;7.22;100.00
57606;BME280;43430;48.204;11.556;2023-05-01T03:22:53;95742.72;;;7.14;100.00
57606;BME280;43430;48.204;11.556;2023-05-01T03:25:19;95745.34;;;7.14;100.00
57606;BME280;43430;48.204;11.556;2023-05-01T03:27:44;95740.50;;;7.11;100.00
57606;BME280;43430;48.204;11.556;2023-05-01T03:30:10;95741.94;;;7.07;100.00
57606;BME280;43430;48.204;11.556;2023-05-01T03:32:35;95737.31;;;7.09;100.00
57606;BME280;43430;48.204;11.556;2023-05-01T03:35:01;95740.13;;;7.08;100.00
57606;BME280;43430;48.204;11.556;2023-05-01T03:37:27;95744.56;;;7.07;100.00
57606;BME280;43430;48.204;11.556;2023-05-01T03:39:52;95730.66;;;7.07;100.00
57606;BME280;43430;48.204;11.556;2023-05-01T03:42:18;95743.38;;;7.03;100.00
57606;BME280;43430;48.204;11.556;2023-05-01T03:44:44;95746.41;;;6.87;100.00
57606;BME280;43430;48.204;11.556;2023-05-01T03:47:09;95746.78;;;6.97;100.00
57606;BME280;43430;48.204;11.556;2023-05-01T03:49:35;95745.59;;;6.80;100.00
57606;BME280;43430;48.204;11.556;2023-05-01T03:52:00;95741.78;;;6.69;100.00
57606;BME280;43430;48.204;11.556;2023-05-01T03:54:25;95740.38;;;6.66;100.00
57606;BME280;43430;48.204;11.556;2023-05-01T03:56:51;95737.56;;;6.61;100.00
57606;BME280;43430;48.204;11.556;2023-05-01T03:59:16;95744.41;;;6.62;100.00
57606;BME280;43430;48.204;11.556;2023-05-01T04:01:42;95751.47;;;6.62;100.00
57606;BME280;43430;48.204;11.556;2023-05-01T04:04:08;95752.28;;;6.62;100.00
57606;BME280;43430;48.204;11.556;2023-05-01T04:06:33;95747.84;;;6.63;100.00
57606;BME280;43430;48.204;11.556;2023-05-01T04:09:00;95746.84;;;6.57;100.00
57606;BME280;43430;48.204;11.556;2023-05-01T04:11:26;95746.41;;;6.60;100.00
57606;BME280;43430;48.204;11.556;2023-05-01T04:13:52;95735.94;;;6.74;100.00
57606;BME280;43430;48.204;11.556;2023-05-01T04:16:17;95742.81;;;6.75;100.00
57606;BME280;43430;48.204;11.556;2023-05-01T04:18:42;95738.38;;;6.69;100.00
57606;BME280;43430;48.204;11.556;2023-05-01T04:21:07;95728.91;;;6.54;100.00
57606;BME280;43430;48.204;11.556;2023-05-01T04:23:33;95728.69;;;6.49;100.00
57606;BME280;43430;48.204;11.556;2023-05-01T04:25:58;95727.91;;;6.49;100.00
57606;BME280;43430;48.204;11.556;2023-05-01T04:28:23;95731.13;;;6.57;100.00
57606;BME280;43430;48.204;11.556;2023-05-01T04:30:49;95734.34;;;6.66;100.00
57606;BME280;43430;48.204;11.556;2023-05-01T04:33:14;95748.84;;;6.75;100.00
57606;BME280;43430;48.204;11.556;2023-05-01T04:35:40;95742.59;;;6.83;100.00
57606;BME280;43430;48.204;11.556;2023-05-01T04:38:07;95737.53;;;6.88;100.00
57606;BME280;43430;48.204;11.556;2023-05-01T04:40:33;95731.88;;;6.98;100.00
57606;BME280;43430;48.204;11.556;2023-05-01T04:42:58;95727.41;;;7.05;100.00
57606;BME280;43430;48.204;11.556;2023-05-01T04:45:24;95730.44;;;7.08;100.00
57606;BME280;43430;48.204;11.556;2023-05-01T04:47:50;95730.03;;;7.11;100.00
57606;BME280;43430;48.204;11.556;2023-05-01T04:50:15;95734.66;;;7.23;100.00
57606;BME280;43430;48.204;11.556;2023-05-01T04:52:40;95727.19;;;7.20;100.00
57606;BME280;43430;48.204;11.556;2023-05-01T04:55:06;95733.22;;;7.27;100.00
57606;BME280;43430;48.204;11.556;2023-05-01T04:57:32;95730.97;;;7.37;100.00
57606;BME280;43430;48.204;11.556;2023-05-01T04:59:57;95729.72;;;7.46;100.00
57606;BME280;43430;48.204;11.556;2023-05-01T05:02:23;95724.03;;;7.56;100.00
57606;BME280;43430;48.204;11.556;2023-05-01T05:04:48;95721.13;;;7.71;100.00
57606;BME280;43430;48.204;11.556;2023-05-01T05:07:14;95720.66;;;7.80;100.00
57606;BME280;43430;48.204;11.556;2023-05-01T05:09:40;95723.13;;;7.75;100.00
57606;BME280;43430;48.204;11.556;2023-05-01T05:12:05;95718.69;;;7.76;100.00
57606;BME280;43430;48.204;11.556;2023-05-01T05:14:30;95716.28;;;7.74;100.00
57606;BME280;43430;48.204;11.556;2023-05-01T05:16:56;95720.94;;;7.66;100.00
57606;BME280;43430;48.204;11.556;2023-05-01T05:19:21;95723.13;;;7.75;100.00
57606;BME280;43430;48.204;11.556;2023-05-01T05:21:46;95718.47;;;7.77;100.00
57606;BME280;43430;48.204;11.556;2023-05-01T05:24:12;95713.94;;;7.91;100.00
57606;BME280;43430;48.204;11.556;2023-05-01T05:26:38;95719.72;;;8.06;100.00
57606;BME280;43430;48.204;11.556;2023-05-01T05:29:03;95713.34;;;8.21;100.00
57606;BME280;43430;48.204;11.556;2023-05-01T05:31:28;95718.34;;;8.29;100.00
57606;BME280;43430;48.204;11.556;2023-05-01T05:33:54;95718.69;;;8.39;100.00
57606;BME280;43430;48.204;11.556;2023-05-01T05:36:19;95714.03;;;8.41;100.00
57606;BME280;43430;48.204;11.556;2023-05-01T05:38:45;95712.59;;;8.45;100.00
57606;BME280;43430;48.204;11.556;2023-05-01T05:41:10;95713.47;;;8.64;100.00
57606;BME280;43430;48.204;11.556;2023-05-01T05:43:36;95716.19;;;8.76;100.00
57606;BME280;43430;48.204;11.556;2023-05-01T05:46:01;95718.69;;;8.89;100.00
57606;BME280;43430;48.204;11.556;2023-05-01T05:48:27;95705.53;;;9.08;100.00
57606;BME280;43430;48.204;11.556;2023-05-01T05:50:52;95711.09;;;9.18;100.00
57606;BME280;43430;48.204;11.556;2023-05-01T05:53:20;95708.75;;;9.28;100.00
57606;BME280;43430;48.204;11.556;2023-05-01T05:55:49;95709.00;;;9.26;100.00
57606;BME280;43430;48.204;11.556;2023-05-01T05:58:19;95707.47;;;9.37;100.00
57606;BME280;43430;48.204;11.556;2023-05-01T06:00:51;95711.84;;;9.43;100.00
57606;BME280;43430;48.204;11.556;2023-05-01T06:03:22;95712.78;;;9.49;100.00
57606;BME280;43430;48.204;11.556;2023-05-01T06:06:26;95713.47;;;9.26;100.00
57606;BME280;43430;48.204;11.556;2023-05-01T06:08:54;95716.66;;;9.28;100.00
57606;BME280;43430;48.204;11.556;2023-05-01T06:11:27;95709.66;;;9.40;100.00
57606;BME280;43430;48.204;11.556;2023-05-01T06:13:52;95703.22;;;9.36;100.00
57606;BME280;43430;48.204;11.556;2023-05-01T06:16:18;95701.81;;;9.52;100.00
57606;BME280;43430;48.204;11.556;2023-05-01T06:18:43;95703.28;;;9.48;100.00
57606;BME280;43430;48.204;11.556;2023-05-01T06:21:09;95696.53;;;9.52;100.00
57606;BME280;43430;48.204;11.556;2023-05-01T06:23:34;95687.84;;;9.51;100.00
57606;BME280;43430;48.204;11.556;2023-05-01T06:26:00;95691.72;;;9.49;100.00
57606;BME280;43430;48.204;11.556;2023-05-01T06:28:25;95692.88;;;9.53;100.00
57606;BME280;43430;48.204;11.556;2023-05-01T06:30:51;95692.59;;;9.61;100.00
57606;BME280;43430;48.204;11.556;2023-05-01T06:33:16;95696.06;;;9.73;100.00
57606;BME280;43430;48.204;11.556;2023-05-01T06:35:41;95701.25;;;9.80;100.00
57606;BME280;43430;48.204;11.556;2023-05-01T06:38:07;95694.72;;;9.83;100.00
57606;BME280;43430;48.204;11.556;2023-05-01T06:40:32;95695.81;;;9.45;100.00
57606;BME280;43430;48.204;11.556;2023-05-01T06:43:00;95692.28;;;9.69;100.00
57606;BME280;43430;48.204;11.556;2023-05-01T06:45:26;95688.47;;;9.95;100.00
57606;BME280;43430;48.204;11.556;2023-05-01T06:47:54;95685.41;;;9.98;100.00
57606;BME280;43430;48.204;11.556;2023-05-01T06:50:19;95696.75;;;9.99;100.00
57606;BME280;43430;48.204;11.556;2023-05-01T06:52:45;95695.69;;;9.88;100.00
57606;BME280;43430;48.204;11.556;2023-05-01T06:55:10;95692.28;;;9.99;100.00
57606;BME280;43430;48.204;11.556;2023-05-01T06:57:36;95701.91;;;9.75;100.00
57606;BME280;43430;48.204;11.556;2023-05-01T07:00:02;95703.59;;;10.00;100.00
57606;BME280;43430;48.204;11.556;2023-05-01T07:02:31;95699.41;;;10.11;100.00
57606;BME280;43430;48.204;11.556;2023-05-01T07:04:56;95692.88;;;10.13;100.00
57606;BME280;43430;48.204;11.556;2023-05-01T07:07:22;95702.88;;;10.23;100.00
57606;BME280;43430;48.204;11.556;2023-05-01T07:09:47;95699.13;;;10.31;100.00
57606;BME280;43430;48.204;11.556;2023-05-01T07:12:13;95697.88;;;10.33;100.00
57606;BME280;43430;48.204;11.556;2023-05-01T07:14:38;95701.03;;;10.23;100.00
57606;BME280;43430;48.204;11.556;2023-05-01T07:17:05;95699.19;;;10.24;100.00
57606;BME280;43430;48.204;11.556;2023-05-01T07:19:31;95697.19;;;10.38;100.00
57606;BME280;43430;48.204;11.556;2023-05-01T07:21:56;95689.66;;;10.65;100.00
57606;BME280;43430;48.204;11.556;2023-05-01T07:24:22;95689.22;;;10.68;100.00
57606;BME280;43430;48.204;11.556;2023-05-01T07:26:47;95690.00;;;10.92;100.00
57606;BME280;43430;48.204;11.556;2023-05-01T07:29:17;95681.84;;;10.93;100.00
57606;BME280;43430;48.204;11.556;2023-05-01T07:31:43;95679.47;;;10.92;100.00
57606;BME280;43430;48.204;11.556;2023-05-01T07:34:09;95683.03;;;10.74;100.00
57606;BME280;43430;48.204;11.556;2023-05-01T07:36:34;95687.50;;;10.74;100.00
57606;BME280;43430;48.204;11.556;2023-05-01T07:39:05;95679.78;;;10.96;100.00
57606;BME280;43430;48.204;11.556;2023-05-01T07:41:38;95684.94;;;11.02;100.00
57606;BME280;43430;48.204;11.556;2023-05-01T07:44:04;95681.19;;;10.98;100.00
57606;BME280;43430;48.204;11.556;2023-05-01T07:46:29;95688.25;;;10.98;100.00
57606;BME280;43430;48.204;11.556;2023-05-01T07:48:57;95692.28;;;11.12;100.00
57606;BME280;43430;48.204;11.556;2023-05-01T07:51:26;95689.31;;;10.73;100.00
57606;BME280;43430;48.204;11.556;2023-05-01T07:53:51;95692.28;;;10.77;100.00
57606;BME280;43430;48.204;11.556;2023-05-01T07:56:17;95695.16;;;10.87;100.00
57606;BME280;43430;48.204;11.556;2023-05-01T07:58:46;95703.41;;;11.14;100.00
57606;BME280;43430;48.204;11.556;2023-05-01T08:01:11;95707.28;;;11.23;100.00
57606;BME280;43430;48.204;11.556;2023-05-01T08:03:37;95708.91;;;11.01;100.00
57606;BME280;43430;48.204;11.556;2023-05-01T08:06:02;95705.47;;;10.77;100.00
57606;BME280;43430;48.204;11.556;2023-05-01T08:08:28;95709.38;;;10.86;100.00
57606;BME280;43430;48.204;11.556;2023-05-01T08:10:53;95715.13;;;10.95;100.00
57606;BME280;43430;48.204;11.556;2023-05-01T08:13:19;95711.66;;;10.47;100.00
57606;BME280;43430;48.204;11.556;2023-05-01T08:15:46;95717.47;;;10.37;100.00
57606;BME280;43430;48.204;11.556;2023-05-01T08:18:11;95719.34;;;10.84;100.00
57606;BME280;43430;48.204;11.556;2023-05-01T08:20:39;95719.81;;;10.92;100.00
57606;BME280;43430;48.204;11.556;2023-05-01T08:23:06;95722.59;;;10.74;100.00
57606;BME280;43430;48.204;11.556;2023-05-01T08:25:32;95721.06;;;10.90;100.00
57606;BME280;43430;48.204;11.556;2023-05-01T08:28:02;95718.09;;;10.98;100.00
57606;BME280;43430;48.204;11.556;2023-05-01T08:30:28;95718.09;;;10.86;100.00
57606;BME280;43430;48.204;11.556;2023-05-01T08:32:55;95724.31;;;10.92;100.00
57606;BME280;43430;48.204;11.556;2023-05-01T08:35:21;95721.22;;;10.95;100.00
57606;BME280;43430;48.204;11.556;2023-05-01T08:37:46;95728.75;;;10.80;100.00
57606;BME280;43430;48.204;11.556;2023-05-01T08:40:13;95728.31;;;10.95;100.00
57606;BME280;43430;48.204;11.556;2023-05-01T08:42:39;95727.38;;;10.89;100.00
57606;BME280;43430;48.204;11.556;2023-05-01T08:45:06;95727.16;;;10.90;100.00
57606;BME280;43430;48.204;11.556;2023-05-01T08:47:35;95732.31;;;10.97;100.00
57606;BME280;43430;48.204;11.556;2023-05-01T08:50:02;95727.38;;;11.01;100.00
57606;BME280;43430;48.204;11.556;2023-05-01T08:52:28;95728.41;;;10.76;100.00
57606;BME280;43430;48.204;11.556;2023-05-01T08:54:55;95735.41;;;10.71;100.00
57606;BME280;43430;48.204;11.556;2023-05-01T08:57:26;95741.59;;;10.76;100.00
57606;BME280;43430;48.204;11.556;2023-05-01T08:59:54;95742.88;;;10.85;100.00
57606;BME280;43430;48.204;11.556;2023-05-01T09:02:22;95733.91;;;10.86;100.00
57606;BME280;43430;48.204;11.556;2023-05-01T09:04:49;95746.88;;;10.64;100.00
57606;BME280;43430;48.204;11.556;2023-05-01T09:07:15;95756.91;;;10.44;100.00
57606;BME280;43430;48.204;11.556;2023-05-01T09:09:41;95755.06;;;10.14;100.00
57606;BME280;43430;48.204;11.556;2023-05-01T09:12:16;95763.91;;;10.20;100.00
57606;BME280;43430;48.204;11.556;2023-05-01T09:14:44;95762.09;;;10.20;100.00
57606;BME280;43430;48.204;11.556;2023-05-01T09:17:10;95763.31;;;10.06;100.00
57606;BME280;43430;48.204;11.556;2023-05-01T09:19:36;95769.59;;;10.05;100.00
57606;BME280;43430;48.204;11.556;2023-05-01T09:22:01;95771.66;;;10.03;100.00
57606;BME280;43430;48.204;11.556;2023-05-01T09:24:27;95781.69;;;9.94;100.00
57606;BME280;43430;48.204;11.556;2023-05-01T09:26:53;95787.00;;;10.06;100.00
57606;BME280;43430;48.204;11.556;2023-05-01T09:34:42;95813.44;;;9.99;100.00
57606;BME280;43430;48.204;11.556;2023-05-01T09:37:11;95823.09;;;9.87;100.00
57606;BME280;43430;48.204;11.556;2023-05-01T09:39:37;95819.81;;;9.73;100.00
57606;BME280;43430;48.204;11.556;2023-05-01T09:42:03;95837.44;;;9.55;100.00
57606;BME280;43430;48.204;11.556;2023-05-01T09:44:29;95836.41;;;9.56;100.00
57606;BME280;43430;48.204;11.556;2023-05-01T09:46:54;95837.19;;;9.38;100.00
57606;BME280;43430;48.204;11.556;2023-05-01T09:49:43;95850.47;;;9.24;100.00
57606;BME280;43430;48.204;11.556;2023-05-01T09:52:12;95862.09;;;9.35;100.00
57606;BME280;43430;48.204;11.556;2023-05-01T09:54:38;95875.69;;;9.32;100.00
57606;BME280;43430;48.204;11.556;2023-05-01T09:57:08;95870.22;;;9.34;100.00
57606;BME280;43430;48.204;11.556;2023-05-01T09:59:36;95887.34;;;9.18;100.00
57606;BME280;43430;48.204;11.556;2023-05-01T10:02:03;95895.84;;;9.20;100.00
57606;BME280;43430;48.204;11.556;2023-05-01T10:04:34;95898.75;;;9.37;100.00
57606;BME280;43430;48.204;11.556;2023-05-01T10:07:11;95901.22;;;9.32;100.00
57606;BME280;43430;48.204;11.556;2023-05-01T10:09:40;95897.78;;;9.06;100.00
57606;BME280;43430;48.204;11.556;2023-05-01T10:12:07;95910.16;;;8.99;100.00
57606;BME280;43430;48.204;11.556;2023-05-01T10:14:33;95914.34;;;9.07;100.00
57606;BME280;43430;48.204;11.556;2023-05-01T10:17:16;95922.06;;;9.01;100.00
57606;BME280;43430;48.204;11.556;2023-05-01T10:19:42;95922.34;;;8.93;100.00
57606;BME280;43430;48.204;11.556;2023-05-01T10:22:08;95926.56;;;8.94;100.00
57606;BME280;43430;48.204;11.556;2023-05-01T10:24:35;95927.84;;;8.85;100.00
57606;BME280;43430;48.204;11.556;2023-05-01T10:27:00;95934.72;;;8.86;100.00
57606;BME280;43430;48.204;11.556;2023-05-01T10:29:30;95938.41;;;8.78;100.00
57606;BME280;43430;48.204;11.556;2023-05-01T10:31:56;95945.06;;;8.81;100.00
57606;BME280;43430;48.204;11.556;2023-05-01T10:34:24;95935.97;;;8.77;100.00
57606;BME280;43430;48.204;11.556;2023-05-01T10:36:56;95940.91;;;8.60;100.00
57606;BME280;43430;48.204;11.556;2023-05-01T10:42:07;95943.06;;;8.76;100.00
57606;BME280;43430;48.204;11.556;2023-05-01T10:44:36;95943.25;;;8.82;100.00
57606;BME280;43430;48.204;11.556;2023-05-01T10:50:05;95940.31;;;8.65;100.00
57606;BME280;43430;48.204;11.556;2023-05-01T10:55:35;95948.16;;;8.71;100.00
57606;BME280;43430;48.204;11.556;2023-05-01T10:58:00;95952.25;;;8.61;100.00
57606;BME280;43430;48.204;11.556;2023-05-01T11:00:26;95944.78;;;8.58;100.00
57606;BME280;43430;48.204;11.556;2023-05-01T11:02:51;95942.38;;;8.49;100.00
57606;BME280;43430;48.204;11.556;2023-05-01T11:08:32;95940.97;;;8.53;100.00
57606;BME280;43430;48.204;11.556;2023-05-01T11:13:58;95938.19;;;8.42;100.00
57606;BME280;43430;48.204;11.556;2023-05-01T11:19:51;95941.50;;;8.11;100.00
57606;BME280;43430;48.204;11.556;2023-05-01T11:21:52;95937.78;;;8.31;100.00
57606;BME280;43430;48.204;11.556;2023-05-01T11:24:18;95941.03;;;8.33;100.00
57606;BME280;43430;48.204;11.556;2023-05-01T11:26:43;95940.00;;;8.35;100.00
57606;BME280;43430;48.204;11.556;2023-05-01T11:29:10;95940.66;;;8.23;100.00
57606;BME280;43430;48.204;11.556;2023-05-01T11:31:36;95942.03;;;8.39;100.00
57606;BME280;43430;48.204;11.556;2023-05-01T11:34:02;95942.75;;;8.60;100.00
57606;BME280;43430;48.204;11.556;2023-05-01T11:36:29;95941.75;;;8.61;100.00
57606;BME280;43430;48.204;11.556;2023-05-01T11:39:13;95934.06;;;8.59;100.00
57606;BME280;43430;48.204;11.556;2023-05-01T11:41:39;95937.41;;;8.73;100.00
57606;BME280;43430;48.204;11.556;2023-05-01T11:44:05;95934.47;;;8.56;100.00
57606;BME280;43430;48.204;11.556;2023-05-01T11:46:31;95937.25;;;8.68;100.00
57606;BME280;43430;48.204;11.556;2023-05-01T11:48:58;95942.88;;;8.78;100.00
57606;BME280;43430;48.204;11.556;2023-05-01T11:51:25;95942.63;;;8.79;100.00
57606;BME280;43430;48.204;11.556;2023-05-01T11:54:05;95939.00;;;8.80;100.00
57606;BME280;43430;48.204;11.556;2023-05-01T11:56:32;95948.50;;;8.82;100.00
57606;BME280;43430;48.204;11.556;2023-05-01T11:59:08;95946.03;;;8.87;100.00
57606;BME280;43430;48.204;11.556;2023-05-01T12:01:35;95934.28;;;8.89;100.00
57606;BME280;43430;48.204;11.556;2023-05-01T12:04:02;95939.13;;;8.92;100.00
57606;BME280;43430;48.204;11.556;2023-05-01T12:06:42;95943.44;;;9.12;100.00
57606;BME280;43430;48.204;11.556;2023-05-01T12:09:10;95944.31;;;9.06;100.00
57606;BME280;43430;48.204;11.556;2023-05-01T12:11:40;95947.75;;;9.06;100.00
57606;BME280;43430;48.204;11.556;2023-05-01T12:14:06;95949.53;;;9.12;100.00
57606;BME280;43430;48.204;11.556;2023-05-01T12:16:33;95950.81;;;9.28;100.00
57606;BME280;43430;48.204;11.556;2023-05-01T12:18:59;95952.38;;;9.36;100.00
57606;BME280;43430;48.204;11.556;2023-05-01T12:21:24;95955.34;;;9.46;100.00
57606;BME280;43430;48.204;11.556;2023-05-01T12:23:51;95946.59;;;9.27;100.00
57606;BME280;43430;48.204;11.556;2023-05-01T12:26:23;95952.97;;;9.38;100.00
57606;BME280;43430;48.204;11.556;2023-05-01T12:28:56;95944.38;;;9.24;100.00
57606;BME280;43430;48.204;11.556;2023-05-01T12:31:22;95950.91;;;9.46;100.00
57606;BME280;43430;48.204;11.556;2023-05-01T12:34:02;95943.97;;;9.27;100.00
57606;BME280;43430;48.204;11.556;2023-05-01T12:36:37;95947.75;;;9.31;100.00
57606;BME280;43430;48.204;11.556;2023-05-01T12:39:05;95936.53;;;9.42;100.00
57606;BME280;43430;48.204;11.556;2023-05-01T12:41:39;95940.56;;;9.70;100.00
57606;BME280;43430;48.204;11.556;2023-05-01T12:44:25;95940.44;;;9.83;100.00
57606;BME280;43430;48.204;11.556;2023-05-01T12:47:03;95940.31;;;9.96;100.00
57606;BME280;43430;48.204;11.556;2023-05-01T12:49:30;95935.63;;;9.98;100.00
57606;BME280;43430;48.204;11.556;2023-05-01T12:51:58;95938.03;;;10.00;100.00
57606;BME280;43430;48.204;11.556;2023-05-01T12:54:29;95929.69;;;10.03;100.00
57606;BME280;43430;48.204;11.556;2023-05-01T12:57:12;95936.56;;;10.04;100.00
57606;BME280;43430;48.204;11.556;2023-05-01T12:59:41;95936.44;;;10.17;100.00
57606;BME280;43430;48.204;11.556;2023-05-01T13:02:12;95938.44;;;10.22;100.00
57606;BME280;43430;48.204;11.556;2023-05-01T13:04:42;95937.56;;;10.28;100.00
57606;BME280;43430;48.204;11.556;2023-05-01T13:07:16;95941.50;;;10.37;100.00
57606;BME280;43430;48.204;11.556;2023-05-01T13:09:57;95934.47;;;10.13;100.00
57606;BME280;43430;48.204;11.556;2023-05-01T13:12:25;95933.56;;;10.26;100.00
57606;BME280;43430;48.204;11.556;2023-05-01T13:14:52;95938.56;;;10.45;100.00
57606;BME280;43430;48.204;11.556;2023-05-01T13:20:01;95931.28;;;10.59;100.00
57606;BME280;43430;48.204;11.556;2023-05-01T13:22:34;95924.13;;;10.48;100.00
57606;BME280;43430;48.204;11.556;2023-05-01T13:25:21;95911.34;;;10.33;100.00
57606;BME280;43430;48.204;11.556;2023-05-01T13:27:52;95916.53;;;10.70;100.00
57606;BME280;43430;48.204;11.556;2023-05-01T13:30:30;95915.53;;;10.71;100.00